PWSweather.com
Personal Weather Stations
Station Observations
K4FB1
Clubhouse Heritage, Lakeland, FL 33812

Clubhouse HeritageLakeland, FL 33812

Lat: 27.969224, Lon: -81.897769

Elevation: 145

Station Type: Davis Vantage Pro2

http://www.ClubhouseWX.com

High Low Average
Temperature 72.4°F22.4°C 51.0°F10.6°C 64.9°F18.3°C
Dew Point 58.9°F14.9°C -38.3°F-39.1°C 12.1°F-11.1°C
Winds 11.0 mph 17.7 kmh 1.0 mph 1.6 kmh 6.0 mph W9.7 kmh W
Wind Gusts 22.0 mph35.4 kmh 3.0 mph4.8 kmh 13.0 mph20.9 kmh
Humidity 72% 0% 33%
Pressure 30.05 in1017.6 mb 29.75 in1007.5 mb -
Precipitation 0.13 in3.3 mm - -
Hour Temp Dew Point Humidity Winds Wind Gusts Pressure Precip Precip Rate Daily Precip Total
12:00 AM 67.7°F19.8°C -35.6°F-37.6°C 0% 1.0 mph SW1.6 kmh SW 4.0 mph6.4 kmh 29.82 in1009.8 mb 0.00 in0.0 mm 0.00 in0.0 mm 0.00 in0.0 mm
12:05 AM 67.7°F19.8°C -35.6°F-37.6°C 0% 2.0 mph SW3.2 kmh SW 4.0 mph6.4 kmh 29.82 in1009.8 mb 0.00 in0.0 mm 0.00 in0.0 mm 0.00 in0.0 mm
12:10 AM 67.5°F19.7°C -35.6°F-37.6°C 0% 2.0 mph SW3.2 kmh SW 3.0 mph4.8 kmh 29.81 in1009.5 mb 0.00 in0.0 mm 0.00 in0.0 mm 0.00 in0.0 mm
12:15 AM 67.4°F19.7°C -35.6°F-37.6°C 0% 2.0 mph S3.2 kmh S 5.0 mph8.0 kmh 29.80 in1009.1 mb 0.00 in0.0 mm 0.00 in0.0 mm 0.00 in0.0 mm
12:20 AM 67.2°F19.6°C -35.6°F-37.6°C 0% 3.0 mph S4.8 kmh S 6.0 mph9.7 kmh 29.80 in1009.1 mb 0.00 in0.0 mm 0.00 in0.0 mm 0.00 in0.0 mm
12:25 AM 67.2°F19.6°C -35.6°F-37.6°C 0% 4.0 mph S6.4 kmh S 6.0 mph9.7 kmh 29.79 in1008.8 mb 0.00 in0.0 mm 0.00 in0.0 mm 0.00 in0.0 mm
12:30 AM 67.5°F19.7°C -35.6°F-37.6°C 0% 4.0 mph S6.4 kmh S 8.0 mph12.9 kmh 29.80 in1009.1 mb 0.00 in0.0 mm 0.00 in0.0 mm 0.00 in0.0 mm
12:35 AM 67.7°F19.8°C -35.6°F-37.6°C 0% 5.0 mph S8.0 kmh S 8.0 mph12.9 kmh 29.79 in1008.8 mb 0.00 in0.0 mm 0.00 in0.0 mm 0.00 in0.0 mm
12:40 AM 68.0°F20.0°C -35.6°F-37.6°C 0% 5.0 mph S8.0 kmh S 11.0 mph17.7 kmh 29.79 in1008.8 mb 0.00 in0.0 mm 0.00 in0.0 mm 0.00 in0.0 mm
12:45 AM 68.2°F20.1°C -35.6°F-37.6°C 0% 5.0 mph S8.0 kmh S 11.0 mph17.7 kmh 29.79 in1008.8 mb 0.00 in0.0 mm 0.00 in0.0 mm 0.00 in0.0 mm
12:50 AM 68.3°F20.2°C -35.6°F-37.6°C 0% 3.0 mph SW4.8 kmh SW 8.0 mph12.9 kmh 29.79 in1008.8 mb 0.00 in0.0 mm 0.00 in0.0 mm 0.00 in0.0 mm
12:55 AM 68.4°F20.2°C -35.6°F-37.6°C 0% 3.0 mph SW4.8 kmh SW 7.0 mph11.3 kmh 29.79 in1008.8 mb 0.00 in0.0 mm 0.00 in0.0 mm 0.00 in0.0 mm
01:00 AM 68.5°F20.3°C -35.6°F-37.6°C 0% 3.0 mph SSW4.8 kmh SSW 7.0 mph11.3 kmh 29.79 in1008.8 mb 0.00 in0.0 mm 0.00 in0.0 mm 0.00 in0.0 mm
01:05 AM 68.5°F20.3°C -35.6°F-37.6°C 0% 3.0 mph SSW4.8 kmh SSW 7.0 mph11.3 kmh 29.79 in1008.8 mb 0.00 in0.0 mm 0.00 in0.0 mm 0.00 in0.0 mm
01:10 AM 68.6°F20.3°C -35.6°F-37.6°C 0% 3.0 mph SSW4.8 kmh SSW 7.0 mph11.3 kmh 29.79 in1008.8 mb 0.00 in0.0 mm 0.00 in0.0 mm 0.00 in0.0 mm
01:15 AM 68.6°F20.3°C -35.6°F-37.6°C 0% 2.0 mph SSW3.2 kmh SSW 7.0 mph11.3 kmh 29.78 in1008.5 mb 0.00 in0.0 mm 0.00 in0.0 mm 0.00 in0.0 mm
01:20 AM 68.7°F20.4°C -35.6°F-37.6°C 0% 3.0 mph SW4.8 kmh SW 7.0 mph11.3 kmh 29.79 in1008.8 mb 0.00 in0.0 mm 0.00 in0.0 mm 0.00 in0.0 mm
01:25 AM 68.7°F20.4°C -35.6°F-37.6°C 0% 3.0 mph SW4.8 kmh SW 6.0 mph9.7 kmh 29.79 in1008.8 mb 0.00 in0.0 mm 0.00 in0.0 mm 0.00 in0.0 mm
01:30 AM 68.8°F20.4°C -35.6°F-37.6°C 0% 3.0 mph SW4.8 kmh SW 6.0 mph9.7 kmh 29.79 in1008.8 mb 0.00 in0.0 mm 0.00 in0.0 mm 0.00 in0.0 mm
01:35 AM 68.9°F20.5°C -35.6°F-37.6°C 0% 3.0 mph SW4.8 kmh SW 6.0 mph9.7 kmh 29.79 in1008.8 mb 0.00 in0.0 mm 0.00 in0.0 mm 0.00 in0.0 mm
01:40 AM 68.9°F20.5°C -35.6°F-37.6°C 0% 3.0 mph WSW4.8 kmh WSW 6.0 mph9.7 kmh 29.79 in1008.8 mb 0.00 in0.0 mm 0.00 in0.0 mm 0.00 in0.0 mm
01:45 AM 69.0°F20.6°C -35.6°F-37.6°C 0% 3.0 mph WSW4.8 kmh WSW 7.0 mph11.3 kmh 29.79 in1008.8 mb 0.00 in0.0 mm 0.00 in0.0 mm 0.00 in0.0 mm
01:50 AM 69.1°F20.6°C -35.6°F-37.6°C 0% 3.0 mph WSW4.8 kmh WSW 8.0 mph12.9 kmh 29.78 in1008.5 mb 0.00 in0.0 mm 0.00 in0.0 mm 0.00 in0.0 mm
01:55 AM 69.1°F20.6°C -35.6°F-37.6°C 0% 3.0 mph SW4.8 kmh SW 8.0 mph12.9 kmh 29.78 in1008.5 mb 0.00 in0.0 mm 0.00 in0.0 mm 0.00 in0.0 mm
02:00 AM 69.1°F20.6°C -35.6°F-37.6°C 0% 3.0 mph SW4.8 kmh SW 10.0 mph16.1 kmh 29.77 in1008.1 mb 0.00 in0.0 mm 0.00 in0.0 mm 0.00 in0.0 mm
02:05 AM 69.1°F20.6°C -35.6°F-37.6°C 0% 3.0 mph SW4.8 kmh SW 10.0 mph16.1 kmh 29.77 in1008.1 mb 0.00 in0.0 mm 0.00 in0.0 mm 0.00 in0.0 mm
02:10 AM 69.1°F20.6°C -35.6°F-37.6°C 0% 2.0 mph SW3.2 kmh SW 6.0 mph9.7 kmh 29.77 in1008.1 mb 0.00 in0.0 mm 0.00 in0.0 mm 0.00 in0.0 mm
02:15 AM 69.1°F20.6°C -35.6°F-37.6°C 0% 3.0 mph SW4.8 kmh SW 8.0 mph12.9 kmh 29.77 in1008.1 mb 0.00 in0.0 mm 0.00 in0.0 mm 0.00 in0.0 mm
02:20 AM 69.1°F20.6°C -35.6°F-37.6°C 0% 3.0 mph SW4.8 kmh SW 8.0 mph12.9 kmh 29.77 in1008.1 mb 0.00 in0.0 mm 0.00 in0.0 mm 0.00 in0.0 mm
02:25 AM 69.1°F20.6°C -35.6°F-37.6°C 0% 3.0 mph SW4.8 kmh SW 9.0 mph14.5 kmh 29.76 in1007.8 mb 0.00 in0.0 mm 0.00 in0.0 mm 0.00 in0.0 mm
02:30 AM 69.2°F20.7°C -35.6°F-37.6°C 0% 4.0 mph SSW6.4 kmh SSW 9.0 mph14.5 kmh 29.77 in1008.1 mb 0.00 in0.0 mm 0.00 in0.0 mm 0.00 in0.0 mm
02:35 AM 69.3°F20.7°C -35.6°F-37.6°C 0% 4.0 mph SSW6.4 kmh SSW 9.0 mph14.5 kmh 29.77 in1008.1 mb 0.00 in0.0 mm 0.00 in0.0 mm 0.00 in0.0 mm
02:40 AM 69.4°F20.8°C -35.6°F-37.6°C 0% 4.0 mph SW6.4 kmh SW 9.0 mph14.5 kmh 29.77 in1008.1 mb 0.00 in0.0 mm 0.00 in0.0 mm 0.00 in0.0 mm
02:45 AM 69.5°F20.8°C -35.6°F-37.6°C 0% 4.0 mph SW6.4 kmh SW 11.0 mph17.7 kmh 29.77 in1008.1 mb 0.00 in0.0 mm 0.00 in0.0 mm 0.00 in0.0 mm
02:50 AM 69.6°F20.9°C -35.6°F-37.6°C 0% 5.0 mph SW8.0 kmh SW 12.0 mph19.3 kmh 29.76 in1007.8 mb 0.00 in0.0 mm 0.00 in0.0 mm 0.00 in0.0 mm
02:55 AM 69.7°F20.9°C -35.6°F-37.6°C 0% 5.0 mph SW8.0 kmh SW 12.0 mph19.3 kmh 29.76 in1007.8 mb 0.00 in0.0 mm 0.00 in0.0 mm 0.00 in0.0 mm
03:00 AM 69.7°F20.9°C -35.6°F-37.6°C 0% 4.0 mph SW6.4 kmh SW 9.0 mph14.5 kmh 29.76 in1007.8 mb 0.00 in0.0 mm 0.00 in0.0 mm 0.00 in0.0 mm
03:05 AM 69.7°F20.9°C -35.6°F-37.6°C 0% 4.0 mph SW6.4 kmh SW 10.0 mph16.1 kmh 29.76 in1007.8 mb 0.00 in0.0 mm 0.00 in0.0 mm 0.00 in0.0 mm
03:10 AM 69.7°F20.9°C -35.6°F-37.6°C 0% 4.0 mph SW6.4 kmh SW 11.0 mph17.7 kmh 29.76 in1007.8 mb 0.00 in0.0 mm 0.00 in0.0 mm 0.00 in0.0 mm
03:15 AM 69.7°F20.9°C -35.6°F-37.6°C 0% 4.0 mph SW6.4 kmh SW 11.0 mph17.7 kmh 29.75 in1007.5 mb 0.00 in0.0 mm 0.00 in0.0 mm 0.00 in0.0 mm
03:20 AM 69.7°F20.9°C -35.6°F-37.6°C 0% 4.0 mph SW6.4 kmh SW 10.0 mph16.1 kmh 29.75 in1007.5 mb 0.00 in0.0 mm 0.00 in0.0 mm 0.00 in0.0 mm
03:25 AM 69.8°F21.0°C -35.6°F-37.6°C 0% 4.0 mph SW6.4 kmh SW 11.0 mph17.7 kmh 29.75 in1007.5 mb 0.00 in0.0 mm 0.00 in0.0 mm 0.00 in0.0 mm
03:30 AM 69.9°F21.1°C -35.6°F-37.6°C 0% 3.0 mph SW4.8 kmh SW 11.0 mph17.7 kmh 29.75 in1007.5 mb 0.00 in0.0 mm 0.00 in0.0 mm 0.00 in0.0 mm
03:35 AM 70.0°F21.1°C -35.6°F-37.6°C 0% 4.0 mph SW6.4 kmh SW 10.0 mph16.1 kmh 29.75 in1007.5 mb 0.00 in0.0 mm 0.00 in0.0 mm 0.00 in0.0 mm
03:40 AM 70.1°F21.2°C -35.6°F-37.6°C 0% 4.0 mph SW6.4 kmh SW 10.0 mph16.1 kmh 29.75 in1007.5 mb 0.00 in0.0 mm 0.00 in0.0 mm 0.00 in0.0 mm
03:45 AM 70.2°F21.2°C -35.6°F-37.6°C 0% 4.0 mph SW6.4 kmh SW 9.0 mph14.5 kmh 29.75 in1007.5 mb 0.00 in0.0 mm 0.00 in0.0 mm 0.00 in0.0 mm
03:50 AM 70.3°F21.3°C -35.6°F-37.6°C 0% 5.0 mph SW8.0 kmh SW 11.0 mph17.7 kmh 29.75 in1007.5 mb 0.00 in0.0 mm 0.00 in0.0 mm 0.00 in0.0 mm
03:55 AM 70.3°F21.3°C -35.6°F-37.6°C 0% 5.0 mph SW8.0 kmh SW 11.0 mph17.7 kmh 29.75 in1007.5 mb 0.00 in0.0 mm 0.00 in0.0 mm 0.00 in0.0 mm
04:00 AM 70.3°F21.3°C -35.6°F-37.6°C 0% 4.0 mph SW6.4 kmh SW 9.0 mph14.5 kmh 29.75 in1007.5 mb 0.00 in0.0 mm 0.00 in0.0 mm 0.00 in0.0 mm
04:05 AM 70.3°F21.3°C -35.6°F-37.6°C 0% 4.0 mph WSW6.4 kmh WSW 9.0 mph14.5 kmh 29.75 in1007.5 mb 0.00 in0.0 mm 0.00 in0.0 mm 0.00 in0.0 mm
04:10 AM 70.3°F21.3°C -35.6°F-37.6°C 0% 4.0 mph SW6.4 kmh SW 9.0 mph14.5 kmh 29.75 in1007.5 mb 0.00 in0.0 mm 0.00 in0.0 mm 0.00 in0.0 mm
04:15 AM 70.4°F21.3°C -35.6°F-37.6°C 0% 4.0 mph SW6.4 kmh SW 9.0 mph14.5 kmh 29.76 in1007.8 mb 0.00 in0.0 mm 0.00 in0.0 mm 0.00 in0.0 mm
04:20 AM 70.4°F21.3°C -35.6°F-37.6°C 0% 4.0 mph WSW6.4 kmh WSW 11.0 mph17.7 kmh 29.76 in1007.8 mb 0.00 in0.0 mm 0.00 in0.0 mm 0.00 in0.0 mm
04:25 AM 70.6°F21.4°C -35.6°F-37.6°C 0% 4.0 mph WSW6.4 kmh WSW 11.0 mph17.7 kmh 29.76 in1007.8 mb 0.00 in0.0 mm 0.00 in0.0 mm 0.00 in0.0 mm
04:30 AM 70.6°F21.4°C -35.6°F-37.6°C 0% 4.0 mph WSW6.4 kmh WSW 10.0 mph16.1 kmh 29.76 in1007.8 mb 0.00 in0.0 mm 0.00 in0.0 mm 0.00 in0.0 mm
04:35 AM 70.7°F21.5°C -35.6°F-37.6°C 0% 4.0 mph WSW6.4 kmh WSW 10.0 mph16.1 kmh 29.76 in1007.8 mb 0.00 in0.0 mm 0.00 in0.0 mm 0.00 in0.0 mm
04:40 AM 70.6°F21.4°C -35.6°F-37.6°C 0% 4.0 mph WSW6.4 kmh WSW 10.0 mph16.1 kmh 29.75 in1007.5 mb 0.00 in0.0 mm 0.00 in0.0 mm 0.00 in0.0 mm
04:45 AM 70.6°F21.4°C -35.6°F-37.6°C 0% 4.0 mph WSW6.4 kmh WSW 10.0 mph16.1 kmh 29.75 in1007.5 mb 0.00 in0.0 mm 0.00 in0.0 mm 0.00 in0.0 mm
04:50 AM 70.6°F21.4°C -35.6°F-37.6°C 0% 4.0 mph WSW6.4 kmh WSW 11.0 mph17.7 kmh 29.76 in1007.8 mb 0.00 in0.0 mm 0.00 in0.0 mm 0.00 in0.0 mm
04:55 AM 70.6°F21.4°C -35.6°F-37.6°C 0% 5.0 mph WSW8.0 kmh WSW 11.0 mph17.7 kmh 29.76 in1007.8 mb 0.00 in0.0 mm 0.00 in0.0 mm 0.00 in0.0 mm
05:00 AM 70.6°F21.4°C -35.6°F-37.6°C 0% 5.0 mph SW8.0 kmh SW 11.0 mph17.7 kmh 29.76 in1007.8 mb 0.00 in0.0 mm 0.00 in0.0 mm 0.00 in0.0 mm
05:05 AM 70.5°F21.4°C -35.6°F-37.6°C 0% 4.0 mph WSW6.4 kmh WSW 10.0 mph16.1 kmh 29.76 in1007.8 mb 0.00 in0.0 mm 0.00 in0.0 mm 0.00 in0.0 mm
05:10 AM 70.5°F21.4°C -35.6°F-37.6°C 0% 4.0 mph WSW6.4 kmh WSW 10.0 mph16.1 kmh 29.76 in1007.8 mb 0.00 in0.0 mm 0.00 in0.0 mm 0.00 in0.0 mm
05:15 AM 70.4°F21.3°C -35.6°F-37.6°C 0% 4.0 mph WSW6.4 kmh WSW 10.0 mph16.1 kmh 29.76 in1007.8 mb 0.00 in0.0 mm 0.00 in0.0 mm 0.00 in0.0 mm
05:20 AM 70.4°F21.3°C -35.6°F-37.6°C 0% 4.0 mph WSW6.4 kmh WSW 9.0 mph14.5 kmh 29.76 in1007.8 mb 0.00 in0.0 mm 0.00 in0.0 mm 0.00 in0.0 mm
05:25 AM 70.3°F21.3°C -35.6°F-37.6°C 0% 4.0 mph WSW6.4 kmh WSW 9.0 mph14.5 kmh 29.76 in1007.8 mb 0.00 in0.0 mm 0.00 in0.0 mm 0.00 in0.0 mm
05:30 AM 70.3°F21.3°C -35.6°F-37.6°C 0% 4.0 mph WSW6.4 kmh WSW 9.0 mph14.5 kmh 29.76 in1007.8 mb 0.00 in0.0 mm 0.00 in0.0 mm 0.00 in0.0 mm
05:35 AM 70.2°F21.2°C -35.6°F-37.6°C 0% 3.0 mph WSW4.8 kmh WSW 9.0 mph14.5 kmh 29.75 in1007.5 mb 0.00 in0.0 mm 0.00 in0.0 mm 0.00 in0.0 mm
05:40 AM 70.2°F21.2°C -35.6°F-37.6°C 0% 3.0 mph WSW4.8 kmh WSW 9.0 mph14.5 kmh 29.76 in1007.8 mb 0.00 in0.0 mm 0.00 in0.0 mm 0.00 in0.0 mm
05:45 AM 70.1°F21.2°C -35.6°F-37.6°C 0% 4.0 mph WSW6.4 kmh WSW 8.0 mph12.9 kmh 29.76 in1007.8 mb 0.00 in0.0 mm 0.00 in0.0 mm 0.00 in0.0 mm
05:50 AM 70.1°F21.2°C -35.6°F-37.6°C 0% 4.0 mph WSW6.4 kmh WSW 8.0 mph12.9 kmh 29.75 in1007.5 mb 0.00 in0.0 mm 0.00 in0.0 mm 0.00 in0.0 mm
05:55 AM 70.0°F21.1°C -35.6°F-37.6°C 0% 4.0 mph WSW6.4 kmh WSW 8.0 mph12.9 kmh 29.75 in1007.5 mb 0.00 in0.0 mm 0.00 in0.0 mm 0.00 in0.0 mm
06:00 AM 69.9°F21.1°C -35.6°F-37.6°C 0% 4.0 mph SW6.4 kmh SW 10.0 mph16.1 kmh 29.76 in1007.8 mb 0.00 in0.0 mm 0.00 in0.0 mm 0.00 in0.0 mm
06:05 AM 69.9°F21.1°C -35.6°F-37.6°C 0% 4.0 mph SW6.4 kmh SW 10.0 mph16.1 kmh 29.76 in1007.8 mb 0.00 in0.0 mm 0.00 in0.0 mm 0.00 in0.0 mm
06:10 AM 69.9°F21.1°C -35.6°F-37.6°C 0% 4.0 mph SW6.4 kmh SW 10.0 mph16.1 kmh 29.76 in1007.8 mb 0.00 in0.0 mm 0.00 in0.0 mm 0.00 in0.0 mm
06:15 AM 69.9°F21.1°C -35.6°F-37.6°C 0% 4.0 mph SW6.4 kmh SW 10.0 mph16.1 kmh 29.76 in1007.8 mb 0.00 in0.0 mm 0.00 in0.0 mm 0.00 in0.0 mm
06:20 AM 69.9°F21.1°C -35.6°F-37.6°C 0% 3.0 mph SW4.8 kmh SW 8.0 mph12.9 kmh 29.76 in1007.8 mb 0.00 in0.0 mm 0.00 in0.0 mm 0.00 in0.0 mm
06:25 AM 70.0°F21.1°C -35.6°F-37.6°C 0% 3.0 mph SW4.8 kmh SW 8.0 mph12.9 kmh 29.76 in1007.8 mb 0.00 in0.0 mm 0.00 in0.0 mm 0.00 in0.0 mm
06:30 AM 70.0°F21.1°C -35.6°F-37.6°C 0% 3.0 mph SW4.8 kmh SW 8.0 mph12.9 kmh 29.75 in1007.5 mb 0.00 in0.0 mm 0.00 in0.0 mm 0.00 in0.0 mm
06:35 AM 70.1°F21.2°C -35.6°F-37.6°C 0% 4.0 mph SW6.4 kmh SW 9.0 mph14.5 kmh 29.76 in1007.8 mb 0.00 in0.0 mm 0.00 in0.0 mm 0.00 in0.0 mm
06:40 AM 70.1°F21.2°C -35.6°F-37.6°C 0% 4.0 mph SW6.4 kmh SW 10.0 mph16.1 kmh 29.76 in1007.8 mb 0.00 in0.0 mm 0.00 in0.0 mm 0.00 in0.0 mm
06:45 AM 70.2°F21.2°C -35.6°F-37.6°C 0% 4.0 mph SW6.4 kmh SW 10.0 mph16.1 kmh 29.76 in1007.8 mb 0.00 in0.0 mm 0.00 in0.0 mm 0.00 in0.0 mm
06:50 AM 70.3°F21.3°C -35.6°F-37.6°C 0% 4.0 mph WSW6.4 kmh WSW 10.0 mph16.1 kmh 29.77 in1008.1 mb 0.00 in0.0 mm 0.00 in0.0 mm 0.00 in0.0 mm
06:55 AM 69.4°F20.8°C -35.6°F-37.6°C 0% 6.0 mph W9.7 kmh W 15.0 mph24.1 kmh 29.78 in1008.5 mb 0.12 in3.0 mm 1.44 in36.6 mm 0.12 in3.0 mm
07:00 AM 68.0°F20.0°C -35.6°F-37.6°C 0% 8.0 mph NW12.9 kmh NW 17.0 mph27.4 kmh 29.78 in1008.5 mb 0.12 in3.0 mm 0.00 in0.0 mm 0.12 in3.0 mm
07:05 AM 67.1°F19.5°C -35.6°F-37.6°C 0% 9.0 mph NW14.5 kmh NW 18.0 mph29.0 kmh 29.78 in1008.5 mb 0.12 in3.0 mm 0.00 in0.0 mm 0.12 in3.0 mm
07:10 AM 66.6°F19.2°C -35.6°F-37.6°C 0% 8.0 mph NW12.9 kmh NW 18.0 mph29.0 kmh 29.79 in1008.8 mb 0.12 in3.0 mm 0.00 in0.0 mm 0.12 in3.0 mm
07:15 AM 66.2°F19.0°C -35.6°F-37.6°C 0% 8.0 mph NW12.9 kmh NW 22.0 mph35.4 kmh 29.79 in1008.8 mb 0.12 in3.0 mm 0.00 in0.0 mm 0.12 in3.0 mm
07:20 AM 65.9°F18.8°C -35.6°F-37.6°C 0% 7.0 mph NW11.3 kmh NW 22.0 mph35.4 kmh 29.79 in1008.8 mb 0.12 in3.0 mm 0.00 in0.0 mm 0.12 in3.0 mm
07:25 AM 65.8°F18.8°C -35.6°F-37.6°C 0% 5.0 mph NW8.0 kmh NW 12.0 mph19.3 kmh 29.79 in1008.8 mb 0.12 in3.0 mm 0.00 in0.0 mm 0.12 in3.0 mm
07:30 AM 65.7°F18.7°C -35.6°F-37.6°C 0% 5.0 mph NW8.0 kmh NW 10.0 mph16.1 kmh 29.80 in1009.1 mb 0.12 in3.0 mm 0.00 in0.0 mm 0.12 in3.0 mm
07:35 AM 65.6°F18.7°C -35.6°F-37.6°C 0% 5.0 mph NW8.0 kmh NW 10.0 mph16.1 kmh 29.80 in1009.1 mb 0.12 in3.0 mm 0.00 in0.0 mm 0.12 in3.0 mm
07:40 AM 65.4°F18.6°C -35.6°F-37.6°C 0% 4.0 mph WNW6.4 kmh WNW 10.0 mph16.1 kmh 29.80 in1009.1 mb 0.12 in3.0 mm 0.00 in0.0 mm 0.12 in3.0 mm
07:45 AM 65.2°F18.4°C -35.6°F-37.6°C 0% 4.0 mph WNW6.4 kmh WNW 10.0 mph16.1 kmh 29.81 in1009.5 mb 0.12 in3.0 mm 0.00 in0.0 mm 0.12 in3.0 mm
07:50 AM 65.0°F18.3°C -35.6°F-37.6°C 0% 4.0 mph WNW6.4 kmh WNW 10.0 mph16.1 kmh 29.81 in1009.5 mb 0.12 in3.0 mm 0.00 in0.0 mm 0.12 in3.0 mm
07:55 AM 65.0°F18.3°C -35.6°F-37.6°C 0% 5.0 mph WNW8.0 kmh WNW 10.0 mph16.1 kmh 29.80 in1009.1 mb 0.00 in0.0 mm 0.00 in0.0 mm 0.12 in3.0 mm
08:00 AM 64.8°F18.2°C -35.6°F-37.6°C 0% 6.0 mph WNW9.7 kmh WNW 15.0 mph24.1 kmh 29.81 in1009.5 mb 0.00 in0.0 mm 0.00 in0.0 mm 0.12 in3.0 mm
08:05 AM 64.7°F18.2°C -35.6°F-37.6°C 0% 6.0 mph NW9.7 kmh NW 15.0 mph24.1 kmh 29.81 in1009.5 mb 0.00 in0.0 mm 0.00 in0.0 mm 0.12 in3.0 mm
08:10 AM 64.6°F18.1°C -35.6°F-37.6°C 0% 6.0 mph NW9.7 kmh NW 13.0 mph20.9 kmh 29.81 in1009.5 mb 0.00 in0.0 mm 0.00 in0.0 mm 0.12 in3.0 mm
08:15 AM 64.5°F18.1°C -35.6°F-37.6°C 0% 6.0 mph NW9.7 kmh NW 13.0 mph20.9 kmh 29.81 in1009.5 mb 0.00 in0.0 mm 0.00 in0.0 mm 0.12 in3.0 mm
08:20 AM 64.5°F18.1°C -35.6°F-37.6°C 0% 6.0 mph NW9.7 kmh NW 15.0 mph24.1 kmh 29.81 in1009.5 mb 0.00 in0.0 mm 0.00 in0.0 mm 0.12 in3.0 mm
08:25 AM 64.5°F18.1°C -35.6°F-37.6°C 0% 6.0 mph NW9.7 kmh NW 15.0 mph24.1 kmh 29.82 in1009.8 mb 0.00 in0.0 mm 0.00 in0.0 mm 0.12 in3.0 mm
08:30 AM 64.6°F18.1°C -35.6°F-37.6°C 0% 6.0 mph NW9.7 kmh NW 11.0 mph17.7 kmh 29.81 in1009.5 mb 0.00 in0.0 mm 0.00 in0.0 mm 0.12 in3.0 mm
08:35 AM 64.6°F18.1°C -35.6°F-37.6°C 0% 5.0 mph NW8.0 kmh NW 11.0 mph17.7 kmh 29.81 in1009.5 mb 0.00 in0.0 mm 0.00 in0.0 mm 0.12 in3.0 mm
08:40 AM 64.7°F18.2°C -35.6°F-37.6°C 0% 5.0 mph NW8.0 kmh NW 11.0 mph17.7 kmh 29.82 in1009.8 mb 0.00 in0.0 mm 0.00 in0.0 mm 0.12 in3.0 mm
08:45 AM 64.7°F18.2°C -35.6°F-37.6°C 0% 4.0 mph NW6.4 kmh NW 9.0 mph14.5 kmh 29.82 in1009.8 mb 0.00 in0.0 mm 0.00 in0.0 mm 0.12 in3.0 mm
08:50 AM 64.7°F18.2°C -35.6°F-37.6°C 0% 5.0 mph NW8.0 kmh NW 9.0 mph14.5 kmh 29.82 in1009.8 mb 0.00 in0.0 mm 0.00 in0.0 mm 0.12 in3.0 mm
08:55 AM 64.8°F18.2°C -35.6°F-37.6°C 0% 5.0 mph NW8.0 kmh NW 11.0 mph17.7 kmh 29.82 in1009.8 mb 0.00 in0.0 mm 0.00 in0.0 mm 0.12 in3.0 mm
09:00 AM 64.9°F18.3°C -38.3°F-39.1°C 1% 4.0 mph NW6.4 kmh NW 11.0 mph17.7 kmh 29.82 in1009.8 mb 0.00 in0.0 mm 0.00 in0.0 mm 0.12 in3.0 mm
09:05 AM 65.0°F18.3°C -25.7°F-32.1°C 2% 5.0 mph NW8.0 kmh NW 12.0 mph19.3 kmh 29.83 in1010.2 mb 0.00 in0.0 mm 0.00 in0.0 mm 0.12 in3.0 mm
09:10 AM 65.3°F18.5°C -3.7°F-19.8°C 6% 6.0 mph NW9.7 kmh NW 12.0 mph19.3 kmh 29.82 in1009.8 mb 0.00 in0.0 mm 0.00 in0.0 mm 0.12 in3.0 mm
09:15 AM 65.6°F18.7°C -0.3°F-17.9°C 7% 6.0 mph NW9.7 kmh NW 15.0 mph24.1 kmh 29.82 in1009.8 mb 0.00 in0.0 mm 0.00 in0.0 mm 0.12 in3.0 mm
09:20 AM 65.8°F18.8°C -3.4°F-19.7°C 6% 5.0 mph NW8.0 kmh NW 15.0 mph24.1 kmh 29.83 in1010.2 mb 0.00 in0.0 mm 0.00 in0.0 mm 0.12 in3.0 mm
09:25 AM 66.3°F19.1°C -6.8°F-21.6°C 5% 4.0 mph NW6.4 kmh NW 10.0 mph16.1 kmh 29.83 in1010.2 mb 0.00 in0.0 mm 0.00 in0.0 mm 0.12 in3.0 mm
09:30 AM 66.5°F19.2°C 20.3°F-6.5°C 17% 4.0 mph WNW6.4 kmh WNW 11.0 mph17.7 kmh 29.83 in1010.2 mb 0.00 in0.0 mm 0.00 in0.0 mm 0.12 in3.0 mm
09:35 AM 66.7°F19.3°C 26.6°F-3.0°C 22% 5.0 mph WNW8.0 kmh WNW 11.0 mph17.7 kmh 29.83 in1010.2 mb 0.00 in0.0 mm 0.00 in0.0 mm 0.12 in3.0 mm
09:40 AM 66.8°F19.3°C 33.5°F0.8°C 29% 6.0 mph NW9.7 kmh NW 12.0 mph19.3 kmh 29.83 in1010.2 mb 0.00 in0.0 mm 0.00 in0.0 mm 0.12 in3.0 mm
09:45 AM 67.0°F19.4°C 34.5°F1.4°C 30% 6.0 mph WNW9.7 kmh WNW 12.0 mph19.3 kmh 29.84 in1010.5 mb 0.00 in0.0 mm 0.00 in0.0 mm 0.12 in3.0 mm
09:50 AM 67.5°F19.7°C 35.8°F2.1°C 31% 5.0 mph NW8.0 kmh NW 14.0 mph22.5 kmh 29.84 in1010.5 mb 0.00 in0.0 mm 0.00 in0.0 mm 0.12 in3.0 mm
09:55 AM 68.0°F20.0°C 41.4°F5.2°C 38% 5.0 mph NW8.0 kmh NW 14.0 mph22.5 kmh 29.84 in1010.5 mb 0.00 in0.0 mm 0.00 in0.0 mm 0.12 in3.0 mm
10:00 AM 68.1°F20.1°C 44.7°F7.1°C 43% 7.0 mph NW11.3 kmh NW 14.0 mph22.5 kmh 29.83 in1010.2 mb 0.00 in0.0 mm 0.00 in0.0 mm 0.12 in3.0 mm
10:05 AM 68.5°F20.3°C 45.7°F7.6°C 44% 7.0 mph NW11.3 kmh NW 14.0 mph22.5 kmh 29.83 in1010.2 mb 0.00 in0.0 mm 0.00 in0.0 mm 0.12 in3.0 mm
10:10 AM 68.7°F20.4°C 49.3°F9.6°C 50% 7.0 mph NW11.3 kmh NW 13.0 mph20.9 kmh 29.84 in1010.5 mb 0.00 in0.0 mm 0.00 in0.0 mm 0.12 in3.0 mm
10:15 AM 68.3°F20.2°C 49.5°F9.7°C 51% 6.0 mph NW9.7 kmh NW 13.0 mph20.9 kmh 29.84 in1010.5 mb 0.00 in0.0 mm 0.00 in0.0 mm 0.12 in3.0 mm
10:20 AM 67.6°F19.8°C 47.8°F8.8°C 49% 6.0 mph NW9.7 kmh NW 13.0 mph20.9 kmh 29.84 in1010.5 mb 0.00 in0.0 mm 0.00 in0.0 mm 0.12 in3.0 mm
10:25 AM 67.0°F19.4°C 45.5°F7.5°C 46% 7.0 mph NW11.3 kmh NW 13.0 mph20.9 kmh 29.84 in1010.5 mb 0.00 in0.0 mm 0.00 in0.0 mm 0.12 in3.0 mm
10:30 AM 66.4°F19.1°C 42.0°F5.6°C 41% 6.0 mph WNW9.7 kmh WNW 10.0 mph16.1 kmh 29.84 in1010.5 mb 0.00 in0.0 mm 0.00 in0.0 mm 0.12 in3.0 mm
10:35 AM 66.2°F19.0°C 37.7°F3.2°C 35% 5.0 mph WNW8.0 kmh WNW 10.0 mph16.1 kmh 29.84 in1010.5 mb 0.00 in0.0 mm 0.00 in0.0 mm 0.12 in3.0 mm
10:40 AM 65.7°F18.7°C 33.4°F0.8°C 30% 5.0 mph WNW8.0 kmh WNW 11.0 mph17.7 kmh 29.84 in1010.5 mb 0.00 in0.0 mm 0.00 in0.0 mm 0.12 in3.0 mm
10:45 AM 65.2°F18.4°C 26.4°F-3.1°C 23% 5.0 mph WNW8.0 kmh WNW 13.0 mph20.9 kmh 29.85 in1010.8 mb 0.00 in0.0 mm 0.00 in0.0 mm 0.12 in3.0 mm
10:50 AM 64.7°F18.2°C 17.4°F-8.1°C 16% 6.0 mph WNW9.7 kmh WNW 13.0 mph20.9 kmh 29.85 in1010.8 mb 0.00 in0.0 mm 0.00 in0.0 mm 0.12 in3.0 mm
10:55 AM 64.4°F18.0°C -8.2°F-22.3°C 5% 5.0 mph NW8.0 kmh NW 11.0 mph17.7 kmh 29.85 in1010.8 mb 0.01 in0.3 mm 0.12 in3.0 mm 0.13 in3.3 mm
11:00 AM 64.4°F18.0°C -26.2°F-32.3°C 0% 4.0 mph NW6.4 kmh NW 10.0 mph16.1 kmh 29.84 in1010.5 mb 0.01 in0.3 mm 0.00 in0.0 mm 0.13 in3.3 mm
11:05 AM 64.6°F18.1°C -26.2°F-32.3°C 0% 6.0 mph NW9.7 kmh NW 10.0 mph16.1 kmh 29.85 in1010.8 mb 0.01 in0.3 mm 0.00 in0.0 mm 0.13 in3.3 mm
11:10 AM 64.7°F18.2°C -26.2°F-32.3°C 0% 6.0 mph NW9.7 kmh NW 12.0 mph19.3 kmh 29.85 in1010.8 mb 0.01 in0.3 mm 0.00 in0.0 mm 0.13 in3.3 mm
11:15 AM 64.8°F18.2°C -26.2°F-32.3°C 0% 6.0 mph NW9.7 kmh NW 12.0 mph19.3 kmh 29.84 in1010.5 mb 0.01 in0.3 mm 0.00 in0.0 mm 0.13 in3.3 mm
11:20 AM 65.3°F18.5°C -26.2°F-32.3°C 0% 5.0 mph NW8.0 kmh NW 10.0 mph16.1 kmh 29.84 in1010.5 mb 0.01 in0.3 mm 0.00 in0.0 mm 0.13 in3.3 mm
11:25 AM 65.7°F18.7°C -26.2°F-32.3°C 0% 4.0 mph NW6.4 kmh NW 10.0 mph16.1 kmh 29.85 in1010.8 mb 0.01 in0.3 mm 0.00 in0.0 mm 0.13 in3.3 mm
11:30 AM 66.1°F18.9°C -17.2°F-27.3°C 3% 4.0 mph NW6.4 kmh NW 12.0 mph19.3 kmh 29.84 in1010.5 mb 0.01 in0.3 mm 0.00 in0.0 mm 0.13 in3.3 mm
11:35 AM 66.5°F19.2°C 17.4°F-8.1°C 15% 5.0 mph NW8.0 kmh NW 12.0 mph19.3 kmh 29.84 in1010.5 mb 0.01 in0.3 mm 0.00 in0.0 mm 0.13 in3.3 mm
11:40 AM 66.4°F19.1°C 32.3°F0.2°C 28% 6.0 mph NW9.7 kmh NW 10.0 mph16.1 kmh 29.84 in1010.5 mb 0.01 in0.3 mm 0.00 in0.0 mm 0.13 in3.3 mm
11:45 AM 65.9°F18.8°C 36.0°F2.2°C 33% 6.0 mph WNW9.7 kmh WNW 14.0 mph22.5 kmh 29.84 in1010.5 mb 0.01 in0.3 mm 0.00 in0.0 mm 0.13 in3.3 mm
11:50 AM 65.6°F18.7°C 32.5°F0.3°C 29% 6.0 mph NW9.7 kmh NW 14.0 mph22.5 kmh 29.84 in1010.5 mb 0.01 in0.3 mm 0.00 in0.0 mm 0.13 in3.3 mm
11:55 AM 65.6°F18.7°C 24.6°F-4.1°C 21% 5.0 mph WNW8.0 kmh WNW 14.0 mph22.5 kmh 29.85 in1010.8 mb 0.00 in0.0 mm 0.00 in0.0 mm 0.13 in3.3 mm
12:00 PM 66.0°F18.9°C 22.5°F-5.3°C 19% 4.0 mph W6.4 kmh W 10.0 mph16.1 kmh 29.84 in1010.5 mb 0.00 in0.0 mm 0.00 in0.0 mm 0.13 in3.3 mm
12:05 PM 66.9°F19.4°C 28.9°F-1.7°C 24% 4.0 mph W6.4 kmh W 8.0 mph12.9 kmh 29.84 in1010.5 mb 0.00 in0.0 mm 0.00 in0.0 mm 0.13 in3.3 mm
12:10 PM 67.3°F19.6°C 38.0°F3.3°C 34% 4.0 mph W6.4 kmh W 12.0 mph19.3 kmh 29.84 in1010.5 mb 0.00 in0.0 mm 0.00 in0.0 mm 0.13 in3.3 mm
12:15 PM 67.6°F19.8°C 39.7°F4.3°C 36% 4.0 mph W6.4 kmh W 12.0 mph19.3 kmh 29.84 in1010.5 mb 0.00 in0.0 mm 0.00 in0.0 mm 0.13 in3.3 mm
12:20 PM 67.9°F19.9°C 43.3°F6.3°C 41% 4.0 mph W6.4 kmh W 10.0 mph16.1 kmh 29.84 in1010.5 mb 0.00 in0.0 mm 0.00 in0.0 mm 0.13 in3.3 mm
12:25 PM 68.2°F20.1°C 44.8°F7.1°C 43% 4.0 mph W6.4 kmh W 10.0 mph16.1 kmh 29.84 in1010.5 mb 0.00 in0.0 mm 0.00 in0.0 mm 0.13 in3.3 mm
12:30 PM 68.3°F20.2°C 47.3°F8.5°C 47% 5.0 mph W8.0 kmh W 13.0 mph20.9 kmh 29.83 in1010.2 mb 0.00 in0.0 mm 0.00 in0.0 mm 0.13 in3.3 mm
12:35 PM 68.1°F20.1°C 47.1°F8.4°C 47% 5.0 mph W8.0 kmh W 13.0 mph20.9 kmh 29.84 in1010.5 mb 0.00 in0.0 mm 0.00 in0.0 mm 0.13 in3.3 mm
12:40 PM 68.5°F20.3°C 46.9°F8.3°C 46% 5.0 mph WNW8.0 kmh WNW 13.0 mph20.9 kmh 29.84 in1010.5 mb 0.00 in0.0 mm 0.00 in0.0 mm 0.13 in3.3 mm
12:45 PM 68.5°F20.3°C 51.2°F10.7°C 54% 6.0 mph NW9.7 kmh NW 17.0 mph27.4 kmh 29.84 in1010.5 mb 0.00 in0.0 mm 0.00 in0.0 mm 0.13 in3.3 mm
12:50 PM 68.3°F20.2°C 50.5°F10.3°C 53% 6.0 mph WNW9.7 kmh WNW 17.0 mph27.4 kmh 29.84 in1010.5 mb 0.00 in0.0 mm 0.00 in0.0 mm 0.13 in3.3 mm
12:55 PM 68.3°F20.2°C 50.0°F10.0°C 52% 6.0 mph WNW9.7 kmh WNW 18.0 mph29.0 kmh 29.83 in1010.2 mb 0.00 in0.0 mm 0.00 in0.0 mm 0.13 in3.3 mm
01:00 PM 68.5°F20.3°C 49.7°F9.8°C 51% 6.0 mph WNW9.7 kmh WNW 18.0 mph29.0 kmh 29.83 in1010.2 mb 0.00 in0.0 mm 0.00 in0.0 mm 0.13 in3.3 mm
01:05 PM 68.4°F20.2°C 51.1°F10.6°C 54% 7.0 mph WNW11.3 kmh WNW 18.0 mph29.0 kmh 29.83 in1010.2 mb 0.00 in0.0 mm 0.00 in0.0 mm 0.13 in3.3 mm
01:10 PM 68.4°F20.2°C 49.6°F9.8°C 51% 8.0 mph WNW12.9 kmh WNW 18.0 mph29.0 kmh 29.83 in1010.2 mb 0.00 in0.0 mm 0.00 in0.0 mm 0.13 in3.3 mm
01:15 PM 69.2°F20.7°C 53.3°F11.8°C 57% 9.0 mph WNW14.5 kmh WNW 22.0 mph35.4 kmh 29.83 in1010.2 mb 0.00 in0.0 mm 0.00 in0.0 mm 0.13 in3.3 mm
01:20 PM 69.9°F21.1°C 54.9°F12.7°C 59% 8.0 mph W12.9 kmh W 22.0 mph35.4 kmh 29.83 in1010.2 mb 0.00 in0.0 mm 0.00 in0.0 mm 0.13 in3.3 mm
01:25 PM 70.3°F21.3°C 58.0°F14.4°C 65% 8.0 mph W12.9 kmh W 19.0 mph30.6 kmh 29.83 in1010.2 mb 0.00 in0.0 mm 0.00 in0.0 mm 0.13 in3.3 mm
01:30 PM 70.1°F21.2°C 56.9°F13.8°C 63% 8.0 mph W12.9 kmh W 17.0 mph27.4 kmh 29.83 in1010.2 mb 0.00 in0.0 mm 0.00 in0.0 mm 0.13 in3.3 mm
01:35 PM 70.0°F21.1°C 57.3°F14.1°C 64% 8.0 mph WNW12.9 kmh WNW 16.0 mph25.7 kmh 29.82 in1009.8 mb 0.00 in0.0 mm 0.00 in0.0 mm 0.13 in3.3 mm
01:40 PM 70.0°F21.1°C 58.1°F14.5°C 66% 8.0 mph WNW12.9 kmh WNW 16.0 mph25.7 kmh 29.82 in1009.8 mb 0.00 in0.0 mm 0.00 in0.0 mm 0.13 in3.3 mm
01:45 PM 70.4°F21.3°C 58.9°F14.9°C 67% 8.0 mph NW12.9 kmh NW 21.0 mph33.8 kmh 29.83 in1010.2 mb 0.00 in0.0 mm 0.00 in0.0 mm 0.13 in3.3 mm
01:50 PM 70.3°F21.3°C 58.8°F14.9°C 67% 8.0 mph WNW12.9 kmh WNW 21.0 mph33.8 kmh 29.82 in1009.8 mb 0.00 in0.0 mm 0.00 in0.0 mm 0.13 in3.3 mm
01:55 PM 70.8°F21.6°C 58.9°F14.9°C 66% 8.0 mph WNW12.9 kmh WNW 16.0 mph25.7 kmh 29.83 in1010.2 mb 0.00 in0.0 mm 0.00 in0.0 mm 0.13 in3.3 mm
02:00 PM 71.0°F21.7°C 57.8°F14.3°C 63% 8.0 mph WNW12.9 kmh WNW 19.0 mph30.6 kmh 29.82 in1009.8 mb 0.00 in0.0 mm 0.00 in0.0 mm 0.13 in3.3 mm
02:05 PM 71.2°F21.8°C 56.6°F13.7°C 60% 8.0 mph WNW12.9 kmh WNW 20.0 mph32.2 kmh 29.83 in1010.2 mb 0.00 in0.0 mm 0.00 in0.0 mm 0.13 in3.3 mm
02:10 PM 71.0°F21.7°C 55.0°F12.8°C 57% 9.0 mph W14.5 kmh W 20.0 mph32.2 kmh 29.83 in1010.2 mb 0.00 in0.0 mm 0.00 in0.0 mm 0.13 in3.3 mm
02:15 PM 71.2°F21.8°C 51.1°F10.6°C 49% 9.0 mph W14.5 kmh W 18.0 mph29.0 kmh 29.83 in1010.2 mb 0.00 in0.0 mm 0.00 in0.0 mm 0.13 in3.3 mm
02:20 PM 71.2°F21.8°C 51.6°F10.9°C 50% 9.0 mph W14.5 kmh W 17.0 mph27.4 kmh 29.83 in1010.2 mb 0.00 in0.0 mm 0.00 in0.0 mm 0.13 in3.3 mm
02:25 PM 71.4°F21.9°C 49.5°F9.7°C 46% 10.0 mph WNW16.1 kmh WNW 19.0 mph30.6 kmh 29.83 in1010.2 mb 0.00 in0.0 mm 0.00 in0.0 mm 0.13 in3.3 mm
02:30 PM 71.2°F21.8°C 49.9°F9.9°C 47% 11.0 mph WNW17.7 kmh WNW 21.0 mph33.8 kmh 29.82 in1009.8 mb 0.00 in0.0 mm 0.00 in0.0 mm 0.13 in3.3 mm
02:35 PM 71.6°F22.0°C 52.0°F11.1°C 50% 10.0 mph NW16.1 kmh NW 21.0 mph33.8 kmh 29.82 in1009.8 mb 0.00 in0.0 mm 0.00 in0.0 mm 0.13 in3.3 mm
02:40 PM 72.2°F22.3°C 51.4°F10.8°C 48% 7.0 mph WNW11.3 kmh WNW 16.0 mph25.7 kmh 29.82 in1009.8 mb 0.00 in0.0 mm 0.00 in0.0 mm 0.13 in3.3 mm
02:45 PM 71.9°F22.2°C 50.0°F10.0°C 46% 8.0 mph WNW12.9 kmh WNW 21.0 mph33.8 kmh 29.82 in1009.8 mb 0.00 in0.0 mm 0.00 in0.0 mm 0.13 in3.3 mm
02:50 PM 72.2°F22.3°C 48.5°F9.2°C 43% 8.0 mph WNW12.9 kmh WNW 21.0 mph33.8 kmh 29.82 in1009.8 mb 0.00 in0.0 mm 0.00 in0.0 mm 0.13 in3.3 mm
02:55 PM 72.4°F22.4°C 48.6°F9.2°C 43% 8.0 mph W12.9 kmh W 16.0 mph25.7 kmh 29.82 in1009.8 mb 0.00 in0.0 mm 0.00 in0.0 mm 0.13 in3.3 mm
03:00 PM 72.2°F22.3°C 47.2°F8.4°C 41% 8.0 mph W12.9 kmh W 19.0 mph30.6 kmh 29.82 in1009.8 mb 0.00 in0.0 mm 0.00 in0.0 mm 0.13 in3.3 mm
03:05 PM 71.9°F22.2°C 48.2°F9.0°C 43% 9.0 mph W14.5 kmh W 19.0 mph30.6 kmh 29.82 in1009.8 mb 0.00 in0.0 mm 0.00 in0.0 mm 0.13 in3.3 mm
03:10 PM 71.4°F21.9°C 48.9°F9.4°C 45% 9.0 mph W14.5 kmh W 19.0 mph30.6 kmh 29.82 in1009.8 mb 0.00 in0.0 mm 0.00 in0.0 mm 0.13 in3.3 mm
03:15 PM 71.0°F21.7°C 48.0°F8.9°C 44% 9.0 mph W14.5 kmh W 22.0 mph35.4 kmh 29.82 in1009.8 mb 0.00 in0.0 mm 0.00 in0.0 mm 0.13 in3.3 mm
03:20 PM 70.7°F21.5°C 48.9°F9.4°C 46% 9.0 mph W14.5 kmh W 22.0 mph35.4 kmh 29.82 in1009.8 mb 0.00 in0.0 mm 0.00 in0.0 mm 0.13 in3.3 mm
03:25 PM 71.0°F21.7°C 49.2°F9.6°C 46% 8.0 mph WNW12.9 kmh WNW 19.0 mph30.6 kmh 29.82 in1009.8 mb 0.00 in0.0 mm 0.00 in0.0 mm 0.13 in3.3 mm
03:30 PM 71.4°F21.9°C 51.8°F11.0°C 50% 6.0 mph WNW9.7 kmh WNW 18.0 mph29.0 kmh 29.82 in1009.8 mb 0.00 in0.0 mm 0.00 in0.0 mm 0.13 in3.3 mm
03:35 PM 71.2°F21.8°C 50.5°F10.3°C 48% 7.0 mph WNW11.3 kmh WNW 21.0 mph33.8 kmh 29.83 in1010.2 mb 0.00 in0.0 mm 0.00 in0.0 mm 0.13 in3.3 mm
03:40 PM 70.2°F21.2°C 51.2°F10.7°C 51% 9.0 mph W14.5 kmh W 21.0 mph33.8 kmh 29.83 in1010.2 mb 0.00 in0.0 mm 0.00 in0.0 mm 0.13 in3.3 mm
03:45 PM 70.1°F21.2°C 50.0°F10.0°C 49% 9.0 mph WNW14.5 kmh WNW 19.0 mph30.6 kmh 29.83 in1010.2 mb 0.00 in0.0 mm 0.00 in0.0 mm 0.13 in3.3 mm
03:50 PM 69.6°F20.9°C 49.6°F9.8°C 49% 10.0 mph NW16.1 kmh NW 19.0 mph30.6 kmh 29.83 in1010.2 mb 0.00 in0.0 mm 0.00 in0.0 mm 0.13 in3.3 mm
03:55 PM 69.7°F20.9°C 50.8°F10.4°C 51% 9.0 mph WNW14.5 kmh WNW 19.0 mph30.6 kmh 29.83 in1010.2 mb 0.00 in0.0 mm 0.00 in0.0 mm 0.13 in3.3 mm
04:00 PM 69.7°F20.9°C 50.2°F10.1°C 50% 8.0 mph WNW12.9 kmh WNW 16.0 mph25.7 kmh 29.83 in1010.2 mb 0.00 in0.0 mm 0.00 in0.0 mm 0.13 in3.3 mm
04:05 PM 69.5°F20.8°C 49.5°F9.7°C 49% 8.0 mph WNW12.9 kmh WNW 16.0 mph25.7 kmh 29.83 in1010.2 mb 0.00 in0.0 mm 0.00 in0.0 mm 0.13 in3.3 mm
04:10 PM 69.4°F20.8°C 49.4°F9.7°C 49% 8.0 mph WNW12.9 kmh WNW 17.0 mph27.4 kmh 29.83 in1010.2 mb 0.00 in0.0 mm 0.00 in0.0 mm 0.13 in3.3 mm
04:15 PM 68.8°F20.4°C 49.4°F9.7°C 50% 9.0 mph NW14.5 kmh NW 20.0 mph32.2 kmh 29.83 in1010.2 mb 0.00 in0.0 mm 0.00 in0.0 mm 0.13 in3.3 mm
04:20 PM 68.6°F20.3°C 49.7°F9.8°C 51% 9.0 mph NW14.5 kmh NW 20.0 mph32.2 kmh 29.83 in1010.2 mb 0.00 in0.0 mm 0.00 in0.0 mm 0.13 in3.3 mm
04:25 PM 68.4°F20.2°C 50.1°F10.1°C 52% 9.0 mph NW14.5 kmh NW 18.0 mph29.0 kmh 29.84 in1010.5 mb 0.00 in0.0 mm 0.00 in0.0 mm 0.13 in3.3 mm
04:30 PM 68.0°F20.0°C 49.7°F9.8°C 52% 9.0 mph NW14.5 kmh NW 21.0 mph33.8 kmh 29.84 in1010.5 mb 0.00 in0.0 mm 0.00 in0.0 mm 0.13 in3.3 mm
04:35 PM 68.1°F20.1°C 50.3°F10.2°C 53% 8.0 mph WNW12.9 kmh WNW 21.0 mph33.8 kmh 29.84 in1010.5 mb 0.00 in0.0 mm 0.00 in0.0 mm 0.13 in3.3 mm
04:40 PM 67.6°F19.8°C 49.3°F9.6°C 52% 8.0 mph WNW12.9 kmh WNW 20.0 mph32.2 kmh 29.85 in1010.8 mb 0.00 in0.0 mm 0.00 in0.0 mm 0.13 in3.3 mm
04:45 PM 67.2°F19.6°C 49.0°F9.4°C 52% 9.0 mph WNW14.5 kmh WNW 20.0 mph32.2 kmh 29.84 in1010.5 mb 0.00 in0.0 mm 0.00 in0.0 mm 0.13 in3.3 mm
04:50 PM 67.1°F19.5°C 48.9°F9.4°C 52% 8.0 mph WNW12.9 kmh WNW 17.0 mph27.4 kmh 29.85 in1010.8 mb 0.00 in0.0 mm 0.00 in0.0 mm 0.13 in3.3 mm
04:55 PM 66.8°F19.3°C 49.1°F9.5°C 53% 7.0 mph W11.3 kmh W 17.0 mph27.4 kmh 29.85 in1010.8 mb 0.00 in0.0 mm 0.00 in0.0 mm 0.13 in3.3 mm
05:00 PM 66.6°F19.2°C 49.4°F9.7°C 54% 7.0 mph WNW11.3 kmh WNW 17.0 mph27.4 kmh 29.86 in1011.2 mb 0.00 in0.0 mm 0.00 in0.0 mm 0.13 in3.3 mm
05:05 PM 66.4°F19.1°C 50.2°F10.1°C 56% 7.0 mph WNW11.3 kmh WNW 16.0 mph25.7 kmh 29.86 in1011.2 mb 0.00 in0.0 mm 0.00 in0.0 mm 0.13 in3.3 mm
05:10 PM 66.1°F18.9°C 50.4°F10.2°C 57% 7.0 mph NW11.3 kmh NW 16.0 mph25.7 kmh 29.86 in1011.2 mb 0.00 in0.0 mm 0.00 in0.0 mm 0.13 in3.3 mm
05:15 PM 65.8°F18.8°C 50.1°F10.1°C 57% 7.0 mph NW11.3 kmh NW 17.0 mph27.4 kmh 29.86 in1011.2 mb 0.00 in0.0 mm 0.00 in0.0 mm 0.13 in3.3 mm
05:20 PM 65.3°F18.5°C 50.6°F10.3°C 59% 7.0 mph WNW11.3 kmh WNW 17.0 mph27.4 kmh 29.86 in1011.2 mb 0.00 in0.0 mm 0.00 in0.0 mm 0.13 in3.3 mm
05:25 PM 64.7°F18.2°C 50.5°F10.3°C 60% 7.0 mph WNW11.3 kmh WNW 15.0 mph24.1 kmh 29.86 in1011.2 mb 0.00 in0.0 mm 0.00 in0.0 mm 0.13 in3.3 mm
05:30 PM 64.2°F17.9°C 50.0°F10.0°C 60% 6.0 mph WNW9.7 kmh WNW 15.0 mph24.1 kmh 29.87 in1011.5 mb 0.00 in0.0 mm 0.00 in0.0 mm 0.13 in3.3 mm
05:35 PM 63.5°F17.5°C 49.8°F9.9°C 61% 6.0 mph WNW9.7 kmh WNW 15.0 mph24.1 kmh 29.87 in1011.5 mb 0.00 in0.0 mm 0.00 in0.0 mm 0.13 in3.3 mm
05:40 PM 62.9°F17.2°C 49.2°F9.6°C 61% 8.0 mph WNW12.9 kmh WNW 16.0 mph25.7 kmh 29.87 in1011.5 mb 0.00 in0.0 mm 0.00 in0.0 mm 0.13 in3.3 mm
05:45 PM 62.4°F16.9°C 49.2°F9.6°C 62% 8.0 mph WNW12.9 kmh WNW 16.0 mph25.7 kmh 29.88 in1011.9 mb 0.00 in0.0 mm 0.00 in0.0 mm 0.13 in3.3 mm
05:50 PM 62.1°F16.7°C 49.8°F9.9°C 64% 7.0 mph WNW11.3 kmh WNW 16.0 mph25.7 kmh 29.88 in1011.9 mb 0.00 in0.0 mm 0.00 in0.0 mm 0.13 in3.3 mm
05:55 PM 61.7°F16.5°C 49.0°F9.4°C 63% 7.0 mph WNW11.3 kmh WNW 15.0 mph24.1 kmh 29.88 in1011.9 mb 0.00 in0.0 mm 0.00 in0.0 mm 0.13 in3.3 mm
06:00 PM 61.3°F16.3°C 49.0°F9.4°C 64% 7.0 mph NW11.3 kmh NW 15.0 mph24.1 kmh 29.88 in1011.9 mb 0.00 in0.0 mm 0.00 in0.0 mm 0.13 in3.3 mm
06:05 PM 60.9°F16.1°C 48.2°F9.0°C 63% 7.0 mph WNW11.3 kmh WNW 17.0 mph27.4 kmh 29.89 in1012.2 mb 0.00 in0.0 mm 0.00 in0.0 mm 0.13 in3.3 mm
06:10 PM 60.3°F15.7°C 47.2°F8.4°C 62% 8.0 mph WNW12.9 kmh WNW 17.0 mph27.4 kmh 29.89 in1012.2 mb 0.00 in0.0 mm 0.00 in0.0 mm 0.13 in3.3 mm
06:15 PM 59.7°F15.4°C 47.1°F8.4°C 63% 8.0 mph WNW12.9 kmh WNW 19.0 mph30.6 kmh 29.89 in1012.2 mb 0.00 in0.0 mm 0.00 in0.0 mm 0.13 in3.3 mm
06:20 PM 59.3°F15.2°C 46.7°F8.2°C 63% 7.0 mph NW11.3 kmh NW 19.0 mph30.6 kmh 29.89 in1012.2 mb 0.00 in0.0 mm 0.00 in0.0 mm 0.13 in3.3 mm
06:25 PM 58.9°F14.9°C 46.7°F8.2°C 64% 7.0 mph WNW11.3 kmh WNW 16.0 mph25.7 kmh 29.89 in1012.2 mb 0.00 in0.0 mm 0.00 in0.0 mm 0.13 in3.3 mm
06:30 PM 58.6°F14.8°C 46.9°F8.3°C 65% 7.0 mph WNW11.3 kmh WNW 15.0 mph24.1 kmh 29.90 in1012.5 mb 0.00 in0.0 mm 0.00 in0.0 mm 0.13 in3.3 mm
06:35 PM 58.3°F14.6°C 47.0°F8.3°C 66% 6.0 mph WNW9.7 kmh WNW 14.0 mph22.5 kmh 29.90 in1012.5 mb 0.00 in0.0 mm 0.00 in0.0 mm 0.13 in3.3 mm
06:40 PM 58.0°F14.4°C 46.7°F8.2°C 66% 6.0 mph NW9.7 kmh NW 17.0 mph27.4 kmh 29.90 in1012.5 mb 0.00 in0.0 mm 0.00 in0.0 mm 0.13 in3.3 mm
06:45 PM 57.7°F14.3°C 46.4°F8.0°C 66% 7.0 mph NW11.3 kmh NW 17.0 mph27.4 kmh 29.90 in1012.5 mb 0.00 in0.0 mm 0.00 in0.0 mm 0.13 in3.3 mm
06:50 PM 57.5°F14.2°C 46.6°F8.1°C 67% 7.0 mph NW11.3 kmh NW 20.0 mph32.2 kmh 29.90 in1012.5 mb 0.00 in0.0 mm 0.00 in0.0 mm 0.13 in3.3 mm
06:55 PM 57.3°F14.1°C 46.8°F8.2°C 68% 7.0 mph WNW11.3 kmh WNW 20.0 mph32.2 kmh 29.91 in1012.9 mb 0.00 in0.0 mm 0.00 in0.0 mm 0.13 in3.3 mm
07:00 PM 57.1°F13.9°C 47.0°F8.3°C 69% 6.0 mph WNW9.7 kmh WNW 16.0 mph25.7 kmh 29.91 in1012.9 mb 0.00 in0.0 mm 0.00 in0.0 mm 0.13 in3.3 mm
07:05 PM 56.9°F13.8°C 46.8°F8.2°C 69% 6.0 mph WNW9.7 kmh WNW 13.0 mph20.9 kmh 29.91 in1012.9 mb 0.00 in0.0 mm 0.00 in0.0 mm 0.13 in3.3 mm
07:10 PM 56.7°F13.7°C 47.0°F8.3°C 70% 5.0 mph WNW8.0 kmh WNW 12.0 mph19.3 kmh 29.92 in1013.2 mb 0.00 in0.0 mm 0.00 in0.0 mm 0.13 in3.3 mm
07:15 PM 56.5°F13.6°C 46.8°F8.2°C 70% 5.0 mph WNW8.0 kmh WNW 12.0 mph19.3 kmh 29.92 in1013.2 mb 0.00 in0.0 mm 0.00 in0.0 mm 0.13 in3.3 mm
07:20 PM 56.4°F13.6°C 46.7°F8.2°C 70% 5.0 mph NW8.0 kmh NW 13.0 mph20.9 kmh 29.92 in1013.2 mb 0.00 in0.0 mm 0.00 in0.0 mm 0.13 in3.3 mm
07:25 PM 56.2°F13.4°C 46.9°F8.3°C 71% 5.0 mph NW8.0 kmh NW 13.0 mph20.9 kmh 29.92 in1013.2 mb 0.00 in0.0 mm 0.00 in0.0 mm 0.13 in3.3 mm
07:30 PM 56.1°F13.4°C 46.8°F8.2°C 71% 4.0 mph NW6.4 kmh NW 10.0 mph16.1 kmh 29.92 in1013.2 mb 0.00 in0.0 mm 0.00 in0.0 mm 0.13 in3.3 mm
07:35 PM 55.9°F13.3°C 46.6°F8.1°C 71% 4.0 mph NW6.4 kmh NW 10.0 mph16.1 kmh 29.93 in1013.5 mb 0.00 in0.0 mm 0.00 in0.0 mm 0.13 in3.3 mm
07:40 PM 55.8°F13.2°C 46.5°F8.1°C 71% 4.0 mph NW6.4 kmh NW 10.0 mph16.1 kmh 29.93 in1013.5 mb 0.00 in0.0 mm 0.00 in0.0 mm 0.13 in3.3 mm
07:45 PM 55.7°F13.2°C 46.4°F8.0°C 71% 5.0 mph WNW8.0 kmh WNW 12.0 mph19.3 kmh 29.93 in1013.5 mb 0.00 in0.0 mm 0.00 in0.0 mm 0.13 in3.3 mm
07:50 PM 55.6°F13.1°C 46.3°F7.9°C 71% 5.0 mph NW8.0 kmh NW 12.0 mph19.3 kmh 29.93 in1013.5 mb 0.00 in0.0 mm 0.00 in0.0 mm 0.13 in3.3 mm
07:55 PM 55.5°F13.1°C 46.2°F7.9°C 71% 5.0 mph NW8.0 kmh NW 11.0 mph17.7 kmh 29.94 in1013.9 mb 0.00 in0.0 mm 0.00 in0.0 mm 0.13 in3.3 mm
08:00 PM 55.4°F13.0°C 46.2°F7.9°C 71% 5.0 mph NW8.0 kmh NW 11.0 mph17.7 kmh 29.94 in1013.9 mb 0.00 in0.0 mm 0.00 in0.0 mm 0.13 in3.3 mm
08:05 PM 55.3°F12.9°C 46.1°F7.8°C 71% 6.0 mph NW9.7 kmh NW 11.0 mph17.7 kmh 29.94 in1013.9 mb 0.00 in0.0 mm 0.00 in0.0 mm 0.13 in3.3 mm
08:10 PM 55.3°F12.9°C 46.1°F7.8°C 71% 6.0 mph NW9.7 kmh NW 12.0 mph19.3 kmh 29.95 in1014.2 mb 0.00 in0.0 mm 0.00 in0.0 mm 0.13 in3.3 mm
08:15 PM 55.3°F12.9°C 46.1°F7.8°C 71% 6.0 mph NW9.7 kmh NW 13.0 mph20.9 kmh 29.95 in1014.2 mb 0.00 in0.0 mm 0.00 in0.0 mm 0.13 in3.3 mm
08:20 PM 55.2°F12.9°C 46.0°F7.8°C 71% 5.0 mph NW8.0 kmh NW 13.0 mph20.9 kmh 29.95 in1014.2 mb 0.00 in0.0 mm 0.00 in0.0 mm 0.13 in3.3 mm
08:25 PM 55.0°F12.8°C 45.8°F7.7°C 71% 5.0 mph NW8.0 kmh NW 13.0 mph20.9 kmh 29.95 in1014.2 mb 0.00 in0.0 mm 0.00 in0.0 mm 0.13 in3.3 mm
08:30 PM 55.0°F12.8°C 46.1°F7.8°C 72% 6.0 mph NW9.7 kmh NW 13.0 mph20.9 kmh 29.95 in1014.2 mb 0.00 in0.0 mm 0.00 in0.0 mm 0.13 in3.3 mm
08:35 PM 54.9°F12.7°C 46.0°F7.8°C 72% 6.0 mph NW9.7 kmh NW 13.0 mph20.9 kmh 29.95 in1014.2 mb 0.00 in0.0 mm 0.00 in0.0 mm 0.13 in3.3 mm
08:40 PM 54.8°F12.7°C 45.9°F7.7°C 72% 6.0 mph NW9.7 kmh NW 13.0 mph20.9 kmh 29.95 in1014.2 mb 0.00 in0.0 mm 0.00 in0.0 mm 0.13 in3.3 mm
08:45 PM 54.8°F12.7°C 45.9°F7.7°C 72% 6.0 mph NW9.7 kmh NW 13.0 mph20.9 kmh 29.95 in1014.2 mb 0.00 in0.0 mm 0.00 in0.0 mm 0.13 in3.3 mm
08:50 PM 54.7°F12.6°C 45.8°F7.7°C 72% 6.0 mph NW9.7 kmh NW 13.0 mph20.9 kmh 29.96 in1014.6 mb 0.00 in0.0 mm 0.00 in0.0 mm 0.13 in3.3 mm
08:55 PM 54.6°F12.6°C 45.8°F7.7°C 72% 6.0 mph NW9.7 kmh NW 13.0 mph20.9 kmh 29.96 in1014.6 mb 0.00 in0.0 mm 0.00 in0.0 mm 0.13 in3.3 mm
09:00 PM 54.5°F12.5°C 45.3°F7.4°C 71% 5.0 mph NW8.0 kmh NW 10.0 mph16.1 kmh 29.96 in1014.6 mb 0.00 in0.0 mm 0.00 in0.0 mm 0.13 in3.3 mm
09:05 PM 54.5°F12.5°C 45.3°F7.4°C 71% 5.0 mph NW8.0 kmh NW 10.0 mph16.1 kmh 29.97 in1014.9 mb 0.00 in0.0 mm 0.00 in0.0 mm 0.13 in3.3 mm
09:10 PM 54.4°F12.4°C 45.2°F7.3°C 71% 5.0 mph NW8.0 kmh NW 10.0 mph16.1 kmh 29.97 in1014.9 mb 0.00 in0.0 mm 0.00 in0.0 mm 0.13 in3.3 mm
09:15 PM 54.3°F12.4°C 45.1°F7.3°C 71% 5.0 mph NW8.0 kmh NW 11.0 mph17.7 kmh 29.98 in1015.2 mb 0.00 in0.0 mm 0.00 in0.0 mm 0.13 in3.3 mm
09:20 PM 54.2°F12.3°C 45.0°F7.2°C 71% 5.0 mph NW8.0 kmh NW 11.0 mph17.7 kmh 29.98 in1015.2 mb 0.00 in0.0 mm 0.00 in0.0 mm 0.13 in3.3 mm
09:25 PM 54.1°F12.3°C 44.9°F7.2°C 71% 4.0 mph NW6.4 kmh NW 11.0 mph17.7 kmh 29.98 in1015.2 mb 0.00 in0.0 mm 0.00 in0.0 mm 0.13 in3.3 mm
09:30 PM 54.0°F12.2°C 45.2°F7.3°C 72% 5.0 mph NW8.0 kmh NW 11.0 mph17.7 kmh 29.98 in1015.2 mb 0.00 in0.0 mm 0.00 in0.0 mm 0.13 in3.3 mm
09:35 PM 53.9°F12.2°C 45.1°F7.3°C 72% 5.0 mph NW8.0 kmh NW 11.0 mph17.7 kmh 29.99 in1015.6 mb 0.00 in0.0 mm 0.00 in0.0 mm 0.13 in3.3 mm
09:40 PM 53.9°F12.2°C 45.1°F7.3°C 72% 5.0 mph NW8.0 kmh NW 9.0 mph14.5 kmh 29.99 in1015.6 mb 0.00 in0.0 mm 0.00 in0.0 mm 0.13 in3.3 mm
09:45 PM 53.8°F12.1°C 45.0°F7.2°C 72% 5.0 mph NW8.0 kmh NW 11.0 mph17.7 kmh 30.00 in1015.9 mb 0.00 in0.0 mm 0.00 in0.0 mm 0.13 in3.3 mm
09:50 PM 53.8°F12.1°C 45.0°F7.2°C 72% 5.0 mph NW8.0 kmh NW 11.0 mph17.7 kmh 30.00 in1015.9 mb 0.00 in0.0 mm 0.00 in0.0 mm 0.13 in3.3 mm
09:55 PM 53.7°F12.1°C 44.9°F7.2°C 72% 4.0 mph NW6.4 kmh NW 9.0 mph14.5 kmh 30.00 in1015.9 mb 0.00 in0.0 mm 0.00 in0.0 mm 0.13 in3.3 mm
10:00 PM 53.6°F12.0°C 44.8°F7.1°C 72% 4.0 mph NW6.4 kmh NW 9.0 mph14.5 kmh 30.01 in1016.3 mb 0.00 in0.0 mm 0.00 in0.0 mm 0.13 in3.3 mm
10:05 PM 53.5°F11.9°C 44.7°F7.1°C 72% 5.0 mph NW8.0 kmh NW 10.0 mph16.1 kmh 30.01 in1016.3 mb 0.00 in0.0 mm 0.00 in0.0 mm 0.13 in3.3 mm
10:10 PM 53.4°F11.9°C 44.6°F7.0°C 72% 5.0 mph NW8.0 kmh NW 12.0 mph19.3 kmh 30.01 in1016.3 mb 0.00 in0.0 mm 0.00 in0.0 mm 0.13 in3.3 mm
10:15 PM 53.4°F11.9°C 44.6°F7.0°C 72% 6.0 mph NW9.7 kmh NW 12.0 mph19.3 kmh 30.01 in1016.3 mb 0.00 in0.0 mm 0.00 in0.0 mm 0.13 in3.3 mm
10:20 PM 53.4°F11.9°C 44.6°F7.0°C 72% 6.0 mph NW9.7 kmh NW 12.0 mph19.3 kmh 30.02 in1016.6 mb 0.00 in0.0 mm 0.00 in0.0 mm 0.13 in3.3 mm
10:25 PM 53.4°F11.9°C 44.6°F7.0°C 72% 6.0 mph NW9.7 kmh NW 11.0 mph17.7 kmh 30.02 in1016.6 mb 0.00 in0.0 mm 0.00 in0.0 mm 0.13 in3.3 mm
10:30 PM 53.3°F11.8°C 44.1°F6.7°C 71% 6.0 mph NW9.7 kmh NW 13.0 mph20.9 kmh 30.02 in1016.6 mb 0.00 in0.0 mm 0.00 in0.0 mm 0.13 in3.3 mm
10:35 PM 53.2°F11.8°C 44.0°F6.7°C 71% 7.0 mph NW11.3 kmh NW 16.0 mph25.7 kmh 30.02 in1016.6 mb 0.00 in0.0 mm 0.00 in0.0 mm 0.13 in3.3 mm
10:40 PM 53.1°F11.7°C 43.9°F6.6°C 71% 7.0 mph NW11.3 kmh NW 16.0 mph25.7 kmh 30.03 in1016.9 mb 0.00 in0.0 mm 0.00 in0.0 mm 0.13 in3.3 mm
10:45 PM 53.0°F11.7°C 43.8°F6.6°C 71% 6.0 mph NW9.7 kmh NW 13.0 mph20.9 kmh 30.03 in1016.9 mb 0.00 in0.0 mm 0.00 in0.0 mm 0.13 in3.3 mm
10:50 PM 52.8°F11.6°C 43.7°F6.5°C 71% 6.0 mph NNW9.7 kmh NNW 12.0 mph19.3 kmh 30.03 in1016.9 mb 0.00 in0.0 mm 0.00 in0.0 mm 0.13 in3.3 mm
10:55 PM 52.6°F11.4°C 42.3°F5.7°C 68% 6.0 mph NNW9.7 kmh NNW 15.0 mph24.1 kmh 30.04 in1017.3 mb 0.00 in0.0 mm 0.00 in0.0 mm 0.13 in3.3 mm
11:00 PM 52.7°F11.5°C 41.7°F5.4°C 66% 7.0 mph NNW11.3 kmh NNW 18.0 mph29.0 kmh 30.04 in1017.3 mb 0.00 in0.0 mm 0.00 in0.0 mm 0.13 in3.3 mm
11:05 PM 52.6°F11.4°C 41.9°F5.5°C 67% 7.0 mph N11.3 kmh N 18.0 mph29.0 kmh 30.04 in1017.3 mb 0.00 in0.0 mm 0.00 in0.0 mm 0.13 in3.3 mm
11:10 PM 52.5°F11.4°C 41.5°F5.3°C 66% 6.0 mph N9.7 kmh N 11.0 mph17.7 kmh 30.04 in1017.3 mb 0.00 in0.0 mm 0.00 in0.0 mm 0.13 in3.3 mm
11:15 PM 52.3°F11.3°C 41.3°F5.2°C 66% 5.0 mph N8.0 kmh N 11.0 mph17.7 kmh 30.04 in1017.3 mb 0.00 in0.0 mm 0.00 in0.0 mm 0.13 in3.3 mm
11:20 PM 52.1°F11.2°C 41.1°F5.1°C 66% 5.0 mph N8.0 kmh N 11.0 mph17.7 kmh 30.05 in1017.6 mb 0.00 in0.0 mm 0.00 in0.0 mm 0.13 in3.3 mm
11:25 PM 52.0°F11.1°C 41.4°F5.2°C 67% 5.0 mph N8.0 kmh N 10.0 mph16.1 kmh 30.05 in1017.6 mb 0.00 in0.0 mm 0.00 in0.0 mm 0.13 in3.3 mm
11:30 PM 51.8°F11.0°C 41.2°F5.1°C 67% 5.0 mph N8.0 kmh N 10.0 mph16.1 kmh 30.05 in1017.6 mb 0.00 in0.0 mm 0.00 in0.0 mm 0.13 in3.3 mm
11:35 PM 51.6°F10.9°C 41.0°F5.0°C 67% 4.0 mph N6.4 kmh N 10.0 mph16.1 kmh 30.05 in1017.6 mb 0.00 in0.0 mm 0.00 in0.0 mm 0.13 in3.3 mm
11:40 PM 51.4°F10.8°C 40.8°F4.9°C 67% 4.0 mph N6.4 kmh N 8.0 mph12.9 kmh 30.05 in1017.6 mb 0.00 in0.0 mm 0.00 in0.0 mm 0.13 in3.3 mm
11:45 PM 51.2°F10.7°C 40.6°F4.8°C 67% 4.0 mph N6.4 kmh N 9.0 mph14.5 kmh 30.05 in1017.6 mb 0.00 in0.0 mm 0.00 in0.0 mm 0.13 in3.3 mm
11:50 PM 51.1°F10.6°C 40.9°F4.9°C 68% 4.0 mph N6.4 kmh N 9.0 mph14.5 kmh 30.05 in1017.6 mb 0.00 in0.0 mm 0.00 in0.0 mm 0.13 in3.3 mm
11:55 PM 51.0°F10.6°C 40.8°F4.9°C 68% 4.0 mph N6.4 kmh N 7.0 mph11.3 kmh 30.05 in1017.6 mb 0.00 in0.0 mm 0.00 in0.0 mm 0.13 in3.3 mm